createdAt,value
2023-09-26T00:01:30.577Z,4.45
2023-09-26T00:04:00.271Z,4.97
2023-09-26T00:06:26.905Z,5.10
2023-09-26T00:08:53.335Z,5.13
2023-09-26T00:11:20.629Z,5.30
2023-09-26T00:13:47.334Z,5.50
2023-09-26T00:16:13.826Z,5.25
2023-09-26T00:18:40.288Z,5.32
2023-09-26T00:21:07.553Z,5.22
2023-09-26T00:23:33.953Z,5.45
2023-09-26T00:26:00.344Z,5.72
2023-09-26T00:28:26.862Z,5.57
2023-09-26T00:30:53.300Z,5.88
2023-09-26T00:33:19.706Z,5.45
2023-09-26T00:35:46.121Z,5.68
2023-09-26T00:38:12.585Z,5.78
2023-09-26T00:40:41.091Z,6.30
2023-09-26T00:43:07.590Z,6.35
2023-09-26T00:45:34.188Z,6.40
2023-09-26T00:48:00.724Z,6.40
2023-09-26T00:50:27.173Z,7.00
2023-09-26T00:52:53.762Z,7.13
2023-09-26T00:55:23.673Z,7.18
2023-09-26T00:57:50.430Z,7.30
2023-09-26T01:00:18.950Z,7.40
2023-09-26T01:02:45.488Z,8.23
2023-09-26T01:05:12.269Z,7.35
2023-09-26T01:07:40.519Z,7.45
2023-09-26T01:12:33.575Z,7.38
2023-09-26T01:15:00.049Z,7.35
2023-09-26T01:17:30.716Z,8.10
2023-09-26T01:19:57.381Z,7.25
2023-09-26T01:22:28.129Z,7.32
2023-09-26T01:24:57.457Z,7.97
2023-09-26T01:27:23.859Z,7.93
2023-09-26T01:29:50.269Z,8.23
2023-09-26T01:32:16.700Z,8.30
2023-09-26T01:34:43.101Z,8.18
2023-09-26T01:37:09.565Z,7.95
2023-09-26T01:39:35.965Z,8.32
2023-09-26T01:42:02.358Z,8.07
2023-09-26T01:44:28.817Z,8.18
2023-09-26T01:46:55.367Z,8.40
2023-09-26T01:49:21.978Z,8.25
2023-09-26T01:51:48.320Z,8.50
2023-09-26T01:54:14.744Z,7.32
2023-09-26T01:56:41.103Z,8.20
2023-09-26T01:59:07.458Z,8.68
2023-09-26T02:01:33.936Z,8.63
2023-09-26T02:04:00.333Z,8.48
2023-09-26T02:06:26.908Z,8.27
2023-09-26T02:08:53.294Z,7.70
2023-09-26T02:11:19.673Z,8.35
2023-09-26T02:13:46.168Z,8.25
2023-09-26T02:16:13.473Z,8.52
2023-09-26T02:18:40.044Z,8.40
2023-09-26T02:21:06.421Z,8.00
2023-09-26T02:23:32.831Z,8.40
2023-09-26T02:25:59.192Z,8.43
2023-09-26T02:28:25.613Z,8.70
2023-09-26T02:30:52.048Z,8.70
2023-09-26T02:33:18.454Z,8.55
2023-09-26T02:35:44.778Z,8.43
2023-09-26T02:38:11.215Z,8.85
2023-09-26T02:40:37.650Z,8.75
2023-09-26T02:43:04.156Z,9.43
2023-09-26T02:45:31.731Z,9.20
2023-09-26T02:47:58.451Z,9.02
2023-09-26T02:50:24.958Z,8.82
2023-09-26T02:52:51.429Z,8.70
2023-09-26T02:55:17.841Z,8.43
2023-09-26T02:57:44.272Z,9.07
2023-09-26T03:00:10.946Z,9.20
2023-09-26T03:02:37.425Z,8.80
2023-09-26T03:05:04.041Z,9.43
2023-09-26T03:07:30.442Z,9.68
2023-09-26T03:09:57.040Z,9.60
2023-09-26T03:12:23.387Z,8.98
2023-09-26T03:14:49.741Z,10.07
2023-09-26T03:17:16.660Z,10.40
2023-09-26T03:19:45.770Z,10.55
2023-09-26T03:22:12.118Z,10.93
2023-09-26T03:24:38.439Z,10.20
2023-09-26T03:27:04.828Z,9.90
2023-09-26T03:29:31.315Z,10.02
2023-09-26T03:31:58.065Z,9.88
2023-09-26T03:34:27.696Z,9.88
2023-09-26T03:36:54.102Z,10.65
2023-09-26T03:39:20.569Z,10.77
2023-09-26T03:41:46.946Z,10.90
2023-09-26T03:44:13.291Z,10.75
2023-09-26T03:46:39.867Z,10.07
2023-09-26T03:49:06.498Z,10.88
2023-09-26T03:51:32.925Z,11.48
2023-09-26T03:53:59.326Z,10.32
2023-09-26T03:56:25.724Z,10.95
2023-09-26T03:58:53.372Z,12.00
2023-09-26T04:01:19.840Z,12.35
2023-09-26T04:03:47.217Z,12.55
2023-09-26T04:06:13.998Z,13.30
2023-09-26T04:08:40.515Z,13.02
2023-09-26T04:11:06.939Z,13.02
2023-09-26T04:13:33.360Z,13.10
2023-09-26T04:16:04.332Z,13.15
2023-09-26T04:18:30.761Z,13.82
2023-09-26T04:20:57.291Z,12.93
2023-09-26T04:23:23.637Z,12.45
2023-09-26T04:25:50.035Z,13.07
2023-09-26T04:28:16.416Z,12.68
2023-09-26T04:30:42.875Z,13.60
2023-09-26T04:33:09.561Z,13.20
2023-09-26T04:35:37.196Z,13.30
2023-09-26T04:38:07.125Z,13.40
2023-09-26T04:40:35.191Z,13.00
2023-09-26T04:43:03.734Z,13.73
2023-09-26T04:45:33.884Z,13.20
2023-09-26T04:48:01.155Z,13.25
2023-09-26T04:50:28.817Z,13.77
2023-09-26T04:52:55.654Z,13.32
2023-09-26T04:55:22.157Z,13.95
2023-09-26T04:57:48.584Z,14.70
2023-09-26T05:00:15.502Z,14.25
2023-09-26T05:02:41.972Z,14.43
2023-09-26T05:05:08.790Z,13.30
2023-09-26T05:07:35.321Z,13.77
2023-09-26T05:10:01.906Z,14.23
2023-09-26T05:12:29.164Z,14.15
2023-09-26T05:14:56.717Z,14.02
2023-09-26T05:17:24.209Z,15.35
2023-09-26T05:19:50.606Z,15.48
2023-09-26T05:22:17.057Z,15.18
2023-09-26T05:24:43.786Z,15.35
2023-09-26T05:27:10.203Z,15.93
2023-09-26T05:29:36.609Z,15.80
2023-09-26T05:32:03.247Z,15.70
2023-09-26T05:34:29.824Z,15.35
2023-09-26T05:36:56.489Z,15.63
2023-09-26T05:39:23.002Z,15.90
2023-09-26T05:41:49.366Z,15.80
2023-09-26T05:44:15.767Z,15.18
2023-09-26T05:46:42.404Z,15.38
2023-09-26T05:49:08.953Z,15.23
2023-09-26T05:51:35.381Z,15.35
2023-09-26T05:54:01.733Z,15.15
2023-09-26T05:56:28.610Z,14.82
2023-09-26T05:58:55.003Z,14.30
2023-09-26T06:01:21.737Z,14.45
2023-09-26T06:03:48.303Z,15.43
2023-09-26T06:06:14.742Z,14.85
2023-09-26T06:08:41.110Z,14.63
2023-09-26T06:11:07.514Z,14.60
2023-09-26T06:13:33.933Z,13.95
2023-09-26T06:16:00.354Z,13.88
2023-09-26T06:18:28.339Z,13.27
2023-09-26T06:20:54.710Z,14.20
2023-09-26T06:23:21.107Z,13.13
2023-09-26T06:25:57.569Z,13.38
2023-09-26T06:28:24.311Z,14.05
2023-09-26T06:30:51.030Z,13.55
2023-09-26T06:33:17.631Z,13.77
2023-09-26T06:35:44.904Z,14.25
2023-09-26T06:38:11.476Z,13.73
2023-09-26T06:40:37.863Z,13.90
2023-09-26T06:43:04.529Z,14.40
2023-09-26T06:45:31.104Z,13.57
2023-09-26T06:47:57.565Z,14.90
2023-09-26T06:50:24.005Z,15.50
2023-09-26T06:52:50.353Z,16.30
2023-09-26T06:55:16.991Z,16.15
2023-09-26T06:57:43.558Z,14.27
2023-09-26T07:00:10.393Z,13.27
2023-09-26T07:02:36.833Z,12.90
2023-09-26T07:05:03.522Z,12.15
2023-09-26T07:07:29.924Z,11.30
2023-09-26T07:09:56.473Z,11.63
2023-09-26T07:12:22.814Z,11.20
2023-09-26T07:14:49.205Z,11.60
2023-09-26T07:17:15.766Z,11.30
2023-09-26T07:19:42.208Z,10.77
2023-09-26T07:22:08.771Z,11.50
2023-09-26T07:24:48.757Z,10.02
2023-09-26T07:27:17.618Z,10.20
2023-09-26T07:29:47.308Z,10.20
2023-09-26T07:32:15.778Z,9.70
2023-09-26T07:34:42.495Z,9.90
2023-09-26T07:37:09.094Z,10.18
2023-09-26T07:39:35.575Z,10.45
2023-09-26T07:42:01.957Z,9.68
2023-09-26T07:44:28.672Z,9.75
2023-09-26T07:46:55.106Z,9.98
2023-09-26T07:49:21.714Z,10.07
2023-09-26T07:51:48.142Z,9.70
2023-09-26T07:54:14.546Z,9.43
2023-09-26T07:56:40.915Z,9.75
2023-09-26T07:59:07.383Z,8.93
2023-09-26T08:01:33.814Z,9.30
2023-09-26T08:04:00.268Z,9.20
2023-09-26T08:06:26.871Z,9.50
2023-09-26T08:08:53.307Z,8.93
2023-09-26T08:11:19.668Z,9.25
2023-09-26T08:13:46.031Z,9.27
2023-09-26T08:16:12.479Z,8.70
2023-09-26T08:18:38.976Z,9.10
2023-09-26T08:21:06.419Z,9.15
2023-09-26T08:23:32.995Z,8.95
2023-09-26T08:26:02.299Z,9.43
2023-09-26T08:28:29.163Z,9.07
2023-09-26T08:30:55.690Z,9.65
2023-09-26T08:33:22.103Z,9.48
2023-09-26T08:35:48.595Z,9.00
2023-09-26T08:38:14.957Z,8.95
2023-09-26T08:40:42.108Z,9.18
2023-09-26T08:43:09.268Z,8.60
2023-09-26T08:45:35.704Z,8.80
2023-09-26T08:48:02.254Z,8.30
2023-09-26T08:50:28.802Z,8.45
2023-09-26T08:52:55.230Z,8.20
2023-09-26T08:55:21.748Z,9.07
2023-09-26T08:57:51.033Z,8.45
2023-09-26T09:00:19.071Z,8.05
2023-09-26T09:02:45.631Z,8.15
2023-09-26T09:05:12.090Z,7.88
2023-09-26T09:07:41.588Z,7.65
2023-09-26T09:10:14.149Z,7.35
2023-09-26T09:12:42.206Z,7.93
2023-09-26T09:17:41.475Z,7.70
2023-09-26T09:20:09.294Z,7.35
2023-09-26T09:22:35.783Z,7.53
2023-09-26T09:25:03.285Z,7.63
2023-09-26T09:27:37.355Z,7.87
2023-09-26T09:30:03.813Z,7.78
2023-09-26T09:32:30.259Z,7.65
2023-09-26T09:34:56.949Z,7.57
2023-09-26T09:37:23.543Z,7.00
2023-09-26T09:39:49.971Z,7.95
2023-09-26T09:42:16.502Z,7.88
2023-09-26T09:44:42.990Z,7.25
2023-09-26T09:47:10.320Z,7.72
2023-09-26T09:49:41.825Z,7.60
2023-09-26T09:52:10.955Z,7.47
2023-09-26T09:54:44.291Z,7.47
2023-09-26T09:57:10.698Z,7.13
2023-09-26T09:59:41.449Z,7.70
2023-09-26T10:02:08.245Z,7.53
2023-09-26T10:04:36.710Z,8.32
2023-09-26T10:07:03.179Z,6.80
2023-09-26T10:09:31.825Z,7.47
2023-09-26T10:12:00.082Z,7.40
2023-09-26T10:14:27.787Z,7.13
2023-09-26T10:16:57.036Z,6.93
2023-09-26T10:19:33.526Z,7.65
2023-09-26T10:22:20.276Z,7.45
2023-09-26T10:24:54.109Z,7.55
2023-09-26T10:30:19.675Z,7.22
2023-09-26T10:32:47.172Z,6.93
2023-09-26T10:35:17.515Z,6.68
2023-09-26T10:38:12.490Z,7.45
2023-09-26T10:40:38.965Z,6.85
2023-09-26T10:45:34.792Z,6.72
2023-09-26T10:50:57.108Z,6.95
2023-09-26T10:53:23.837Z,7.33
2023-09-26T10:55:50.239Z,6.93
2023-09-26T10:58:20.819Z,6.15
2023-09-26T11:00:51.902Z,7.15
2023-09-26T11:03:18.865Z,6.72
2023-09-26T11:05:46.282Z,7.43
2023-09-26T11:08:15.700Z,6.80
2023-09-26T11:10:50.032Z,7.55
2023-09-26T11:13:17.591Z,7.32
2023-09-26T11:15:44.180Z,6.70
2023-09-26T11:18:12.712Z,7.28
2023-09-26T11:20:50.539Z,6.78
2023-09-26T11:23:35.668Z,6.88
2023-09-26T11:26:02.290Z,6.65
2023-09-26T11:28:28.840Z,6.10
2023-09-26T11:30:55.304Z,6.22
2023-09-26T11:33:21.763Z,6.63
2023-09-26T11:35:48.146Z,6.32
2023-09-26T11:38:14.818Z,6.00
2023-09-26T11:40:41.449Z,6.03
2023-09-26T11:43:07.951Z,5.47
2023-09-26T11:45:35.720Z,5.95
2023-09-26T11:48:02.509Z,6.25
2023-09-26T11:50:29.821Z,6.00
2023-09-26T11:52:57.187Z,6.60
2023-09-26T11:55:23.694Z,6.32
2023-09-26T11:57:50.957Z,6.30
2023-09-26T12:00:18.584Z,6.25
2023-09-26T12:02:46.963Z,6.32
2023-09-26T12:05:14.103Z,6.50
2023-09-26T12:07:41.768Z,6.90
2023-09-26T12:10:09.857Z,6.85
2023-09-26T12:12:37.083Z,6.30
2023-09-26T12:15:39.068Z,6.35
2023-09-26T12:18:06.290Z,6.35
2023-09-26T12:20:32.838Z,6.38
2023-09-26T12:22:59.249Z,7.00
2023-09-26T12:25:27.148Z,5.72
2023-09-26T12:27:54.499Z,5.90
2023-09-26T12:30:24.410Z,6.47
2023-09-26T12:32:51.601Z,5.65
2023-09-26T12:35:18.694Z,6.28
2023-09-26T12:37:47.150Z,6.20
2023-09-26T12:40:14.470Z,6.22
2023-09-26T12:42:41.692Z,6.25
2023-09-26T12:45:09.046Z,6.10
2023-09-26T12:47:35.864Z,6.20
2023-09-26T12:50:02.385Z,6.18
2023-09-26T12:52:29.052Z,6.90
2023-09-26T12:54:55.518Z,6.32
2023-09-26T12:57:21.951Z,6.05
2023-09-26T12:59:51.894Z,4.95
2023-09-26T13:02:18.594Z,5.38
2023-09-26T13:04:45.070Z,5.40
2023-09-26T13:07:11.560Z,5.40
2023-09-26T13:09:37.924Z,5.60
2023-09-26T13:12:04.515Z,5.10
2023-09-26T13:14:30.896Z,4.70
2023-09-26T13:16:57.675Z,4.97
2023-09-26T13:19:24.131Z,5.47
2023-09-26T13:21:50.559Z,4.68
2023-09-26T13:24:17.030Z,5.00
2023-09-26T13:26:43.528Z,4.57
2023-09-26T13:29:11.142Z,5.53
2023-09-26T13:31:37.609Z,5.20
2023-09-26T13:34:04.183Z,4.70
2023-09-26T13:36:30.616Z,5.07
2023-09-26T13:38:56.998Z,4.88
2023-09-26T13:41:23.354Z,5.13
2023-09-26T13:43:49.804Z,5.03
2023-09-26T13:46:16.241Z,5.47
2023-09-26T13:48:42.629Z,5.57
2023-09-26T13:51:08.981Z,5.30
2023-09-26T13:53:36.170Z,5.93
2023-09-26T13:56:02.656Z,5.53
2023-09-26T13:58:29.034Z,5.63
2023-09-26T14:00:55.515Z,5.07
2023-09-26T14:03:22.044Z,5.28
2023-09-26T14:05:48.637Z,4.85
2023-09-26T14:08:15.149Z,5.20
2023-09-26T14:10:41.597Z,4.85
2023-09-26T14:13:08.007Z,5.53
2023-09-26T14:15:34.413Z,5.30
2023-09-26T14:18:00.943Z,5.95
2023-09-26T14:20:27.823Z,5.15
2023-09-26T14:22:55.074Z,5.88
2023-09-26T14:25:21.560Z,5.53
2023-09-26T14:27:48.084Z,6.00
2023-09-26T14:30:14.800Z,6.65
2023-09-26T14:32:41.758Z,6.53
2023-09-26T14:35:09.893Z,6.57
2023-09-26T14:37:36.395Z,5.93
2023-09-26T14:40:02.840Z,6.15
2023-09-26T14:42:29.204Z,6.45
2023-09-26T14:44:55.690Z,5.82
2023-09-26T14:47:22.108Z,6.25
2023-09-26T14:49:48.494Z,5.90
2023-09-26T14:52:14.899Z,6.32
2023-09-26T14:54:41.292Z,6.15
2023-09-26T14:57:07.690Z,6.10
2023-09-26T14:59:34.041Z,5.72
2023-09-26T15:02:00.481Z,5.50
2023-09-26T15:04:27.010Z,6.32
2023-09-26T15:06:53.372Z,5.80
2023-09-26T15:09:19.697Z,6.47
2023-09-26T15:11:46.054Z,6.18
2023-09-26T15:14:13.921Z,6.05
2023-09-26T15:16:40.721Z,6.00
2023-09-26T15:19:07.262Z,6.03
2023-09-26T15:21:33.837Z,5.75
2023-09-26T15:24:00.318Z,5.32
2023-09-26T15:26:26.784Z,4.90
2023-09-26T15:28:53.182Z,5.15
2023-09-26T15:31:19.590Z,4.68
2023-09-26T15:33:46.490Z,5.38
2023-09-26T15:36:14.039Z,4.50
2023-09-26T15:38:40.377Z,4.47
2023-09-26T15:41:16.598Z,4.75
2023-09-26T15:43:45.183Z,4.35
2023-09-26T15:46:11.889Z,4.85
2023-09-26T15:48:38.359Z,4.32
2023-09-26T15:51:11.592Z,4.63
2023-09-26T15:53:38.686Z,4.53
2023-09-26T15:56:05.137Z,4.43
2023-09-26T15:58:31.551Z,6.32
2023-09-26T16:00:58.066Z,5.43
2023-09-26T16:03:24.472Z,5.20
2023-09-26T16:05:51.244Z,4.45
2023-09-26T16:08:17.778Z,4.57
2023-09-26T16:10:44.293Z,4.78
2023-09-26T16:13:10.967Z,5.03
2023-09-26T16:15:37.506Z,5.03
2023-09-26T16:18:04.331Z,5.07
2023-09-26T16:20:30.755Z,4.82
2023-09-26T16:22:57.424Z,5.47
2023-09-26T16:25:23.869Z,5.10
2023-09-26T16:27:50.355Z,4.97
2023-09-26T16:30:16.824Z,5.80
2023-09-26T16:32:43.426Z,5.15
2023-09-26T16:35:10.049Z,5.30
2023-09-26T16:37:36.578Z,4.68
2023-09-26T16:40:03.375Z,4.97
2023-09-26T16:42:29.786Z,4.90
2023-09-26T16:44:56.251Z,4.55
2023-09-26T16:47:22.665Z,4.60
2023-09-26T16:49:49.166Z,4.75
2023-09-26T16:52:15.972Z,5.10
2023-09-26T16:54:42.398Z,4.90
2023-09-26T16:57:08.827Z,5.30
2023-09-26T16:59:35.310Z,5.30
2023-09-26T17:02:01.832Z,5.45
2023-09-26T17:04:29.137Z,5.03
2023-09-26T17:06:55.644Z,5.50
2023-09-26T17:09:22.087Z,5.03
2023-09-26T17:11:50.453Z,4.80
2023-09-26T17:14:17.220Z,5.38
2023-09-26T17:16:43.668Z,4.90
2023-09-26T17:19:10.073Z,5.03
2023-09-26T17:21:36.496Z,5.25
2023-09-26T17:24:03.051Z,5.40
2023-09-26T17:26:29.435Z,5.53
2023-09-26T17:28:55.926Z,5.63
2023-09-26T17:31:22.339Z,5.70
2023-09-26T17:33:48.794Z,5.70
2023-09-26T17:36:15.201Z,6.10
2023-09-26T17:38:41.544Z,5.53
2023-09-26T17:41:08.785Z,5.68
2023-09-26T17:43:37.220Z,5.47
2023-09-26T17:46:04.269Z,5.22
2023-09-26T17:48:31.575Z,5.53
2023-09-26T17:50:58.856Z,5.72
2023-09-26T17:53:25.231Z,5.20
2023-09-26T17:55:51.679Z,5.63
2023-09-26T17:58:18.141Z,5.88
2023-09-26T18:00:44.637Z,5.82
2023-09-26T18:03:11.051Z,5.22
2023-09-26T18:05:37.566Z,5.60
2023-09-26T18:08:04.180Z,5.70
2023-09-26T18:10:30.549Z,5.40
2023-09-26T18:12:56.993Z,5.60
2023-09-26T18:15:23.414Z,5.38
2023-09-26T18:17:50.084Z,5.75
2023-09-26T18:20:16.630Z,5.20
2023-09-26T18:22:43.133Z,4.90
2023-09-26T18:25:09.989Z,5.50
2023-09-26T18:27:36.379Z,5.47
2023-09-26T18:30:02.869Z,5.57
2023-09-26T18:32:29.292Z,5.70
2023-09-26T18:34:56.188Z,5.40
2023-09-26T18:37:22.636Z,5.60
2023-09-26T18:39:49.021Z,5.70
2023-09-26T18:42:15.680Z,5.85
2023-09-26T18:44:42.080Z,5.40
2023-09-26T18:47:08.509Z,5.65
2023-09-26T18:49:35.178Z,5.55
2023-09-26T18:52:01.606Z,6.00
2023-09-26T18:54:28.093Z,5.47
2023-09-26T18:56:54.672Z,5.50
2023-09-26T18:59:21.232Z,6.30
2023-09-26T19:01:48.749Z,6.18
2023-09-26T19:04:15.427Z,6.40
2023-09-26T19:06:42.122Z,5.85
2023-09-26T19:09:08.677Z,5.78
2023-09-26T19:11:35.097Z,6.15
2023-09-26T19:14:01.568Z,6.00
2023-09-26T19:16:28.572Z,6.20
2023-09-26T19:19:04.978Z,6.53
2023-09-26T19:21:33.520Z,6.60
2023-09-26T19:24:00.003Z,6.72
2023-09-26T19:26:26.469Z,6.60
2023-09-26T19:28:52.966Z,6.75
2023-09-26T19:31:19.451Z,6.65
2023-09-26T19:33:45.837Z,6.30
2023-09-26T19:36:12.339Z,7.32
2023-09-26T19:38:38.702Z,6.95
2023-09-26T19:41:05.073Z,7.03
2023-09-26T19:43:31.508Z,7.20
2023-09-26T19:45:58.444Z,7.30
2023-09-26T19:48:24.870Z,7.05
2023-09-26T19:50:51.303Z,7.60
2023-09-26T19:53:17.859Z,7.38
2023-09-26T19:55:48.114Z,7.88
2023-09-26T19:58:14.796Z,7.45
2023-09-26T20:00:42.242Z,7.68
2023-09-26T20:03:09.533Z,8.43
2023-09-26T20:05:36.066Z,7.43
2023-09-26T20:08:02.593Z,8.27
2023-09-26T20:10:29.050Z,8.07
2023-09-26T20:12:55.576Z,9.02
2023-09-26T20:15:24.170Z,8.25
2023-09-26T20:17:51.153Z,8.48
2023-09-26T20:20:17.648Z,8.95
2023-09-26T20:22:44.245Z,8.45
2023-09-26T20:25:10.702Z,8.93
2023-09-26T20:27:37.955Z,8.93
2023-09-26T20:30:04.873Z,8.93
2023-09-26T20:32:31.838Z,9.40
2023-09-26T20:34:58.516Z,9.45
2023-09-26T20:37:24.982Z,9.30
2023-09-26T20:39:51.426Z,9.48
2023-09-26T20:42:17.818Z,9.38
2023-09-26T20:44:44.184Z,9.52
2023-09-26T20:47:10.719Z,9.85
2023-09-26T20:49:37.290Z,9.95
2023-09-26T20:52:03.777Z,10.13
2023-09-26T20:54:30.152Z,10.23
2023-09-26T20:56:56.633Z,10.38
2023-09-26T20:59:23.150Z,10.68
2023-09-26T21:01:49.715Z,10.90
2023-09-26T21:04:16.269Z,10.90
2023-09-26T21:06:43.257Z,10.98
2023-09-26T21:09:09.871Z,10.82
2023-09-26T21:11:36.287Z,9.85
2023-09-26T21:14:02.676Z,9.68
2023-09-26T21:16:29.173Z,10.00
2023-09-26T21:18:55.892Z,9.40
2023-09-26T21:21:24.401Z,9.27
2023-09-26T21:26:19.383Z,8.20
2023-09-26T21:28:46.174Z,7.70
2023-09-26T21:31:12.743Z,8.18
2023-09-26T21:33:39.269Z,7.57
2023-09-26T21:36:06.224Z,7.20
2023-09-26T21:38:32.928Z,7.15
2023-09-26T21:40:59.513Z,7.00
2023-09-26T21:43:26.066Z,7.30
2023-09-26T21:45:52.654Z,7.05
2023-09-26T21:48:19.193Z,7.13
2023-09-26T21:50:45.712Z,6.35
2023-09-26T21:53:13.536Z,6.32
2023-09-26T21:55:39.997Z,6.28
2023-09-26T21:58:06.458Z,5.35
2023-09-26T22:00:32.871Z,5.60
2023-09-26T22:02:59.324Z,5.35
2023-09-26T22:05:26.021Z,5.18
2023-09-26T22:07:53.931Z,5.25
2023-09-26T22:10:21.106Z,5.70
2023-09-26T22:12:47.531Z,4.90
2023-09-26T22:15:13.956Z,4.78
2023-09-26T22:17:41.274Z,4.90
2023-09-26T22:20:13.942Z,4.40
2023-09-26T22:22:40.807Z,5.20
2023-09-26T22:25:09.355Z,5.20
2023-09-26T22:27:36.456Z,5.18
2023-09-26T22:30:04.910Z,4.78
2023-09-26T22:32:31.397Z,4.80
2023-09-26T22:34:58.375Z,4.70
2023-09-26T22:37:24.831Z,4.90
2023-09-26T22:39:51.395Z,4.47
2023-09-26T22:42:17.741Z,4.57
2023-09-26T22:44:44.219Z,4.45
2023-09-26T22:47:11.076Z,4.50
2023-09-26T22:49:37.607Z,4.30
2023-09-26T22:52:04.636Z,4.60
2023-09-26T22:54:31.249Z,4.38
2023-09-26T22:56:57.771Z,5.97
2023-09-26T22:59:25.085Z,8.40
2023-09-26T23:01:52.389Z,8.63
2023-09-26T23:04:19.480Z,9.50
2023-09-26T23:06:46.188Z,10.10
2023-09-26T23:09:13.662Z,11.75
2023-09-26T23:11:40.315Z,11.35
2023-09-26T23:14:06.906Z,11.48
2023-09-26T23:16:33.589Z,12.00
2023-09-26T23:18:59.969Z,12.52
2023-09-26T23:21:26.446Z,12.85
2023-09-26T23:23:52.765Z,12.70
2023-09-26T23:26:19.292Z,13.07
2023-09-26T23:28:45.750Z,13.18
2023-09-26T23:31:13.582Z,14.00
2023-09-26T23:33:40.078Z,14.23
2023-09-26T23:36:07.448Z,14.57
2023-09-26T23:38:34.358Z,13.83
2023-09-26T23:41:00.745Z,14.38
2023-09-26T23:43:27.987Z,14.15
2023-09-26T23:45:54.878Z,14.27
2023-09-26T23:48:21.341Z,13.23
2023-09-26T23:50:47.671Z,13.35
2023-09-26T23:53:14.188Z,13.48
2023-09-26T23:55:40.630Z,13.05
2023-09-26T23:58:07.024Z,13.13
